createdAt,value
2023-04-28T00:00:16.295Z,3.53
2023-04-28T00:02:48.553Z,3.78
2023-04-28T00:05:27.854Z,2.72
2023-04-28T00:07:56.101Z,3.47
2023-04-28T00:10:29.021Z,3.22
2023-04-28T00:13:01.554Z,3.75
2023-04-28T00:15:33.823Z,2.88
2023-04-28T00:18:01.103Z,3.13
2023-04-28T00:20:33.942Z,3.33
2023-04-28T00:23:10.759Z,3.28
2023-04-28T00:25:40.793Z,3.60
2023-04-28T00:28:32.760Z,4.18
2023-04-28T00:31:20.820Z,3.42
2023-04-28T00:33:56.385Z,4.00
2023-04-28T00:36:26.808Z,3.38
2023-04-28T00:38:59.790Z,4.43
2023-04-28T00:41:29.938Z,3.70
2023-04-28T00:43:57.080Z,3.60
2023-04-28T00:46:40.348Z,3.80
2023-04-28T00:49:17.946Z,3.85
2023-04-28T00:51:47.872Z,3.83
2023-04-28T00:54:20.329Z,3.83
2023-04-28T00:59:36.682Z,4.30
2023-04-28T01:02:21.797Z,3.88
2023-04-28T01:04:54.484Z,4.28
2023-04-28T01:10:07.442Z,5.18
2023-04-28T01:12:34.606Z,4.75
2023-04-28T01:15:07.893Z,4.65
2023-04-28T01:17:42.321Z,4.88
2023-04-28T01:20:13.534Z,4.85
2023-04-28T01:22:41.319Z,4.93
2023-04-28T01:25:16.309Z,4.82
2023-04-28T01:27:48.245Z,4.88
2023-04-28T01:30:15.585Z,3.67
2023-04-28T01:32:45.739Z,4.32
2023-04-28T01:35:21.788Z,4.13
2023-04-28T01:37:51.333Z,4.45
2023-04-28T01:40:21.235Z,4.32
2023-04-28T01:42:49.222Z,5.03
2023-04-28T01:45:32.643Z,4.35
2023-04-28T01:48:02.658Z,4.32
2023-04-28T01:50:34.819Z,4.22
2023-04-28T01:53:05.784Z,4.60
2023-04-28T01:55:35.463Z,4.60
2023-04-28T01:58:05.371Z,4.90
2023-04-28T02:00:33.843Z,4.57
2023-04-28T02:03:05.212Z,5.25
2023-04-28T02:05:37.776Z,5.32
2023-04-28T02:08:09.229Z,4.70
2023-04-28T02:10:48.456Z,5.07
2023-04-28T02:13:17.680Z,5.75
2023-04-28T02:15:56.764Z,5.72
2023-04-28T02:18:26.318Z,6.30
2023-04-28T02:21:15.439Z,5.43
2023-04-28T02:24:17.893Z,5.28
2023-04-28T02:29:41.201Z,6.13
2023-04-28T02:32:20.248Z,5.40
2023-04-28T02:34:57.892Z,5.38
2023-04-28T02:37:32.037Z,5.82
2023-04-28T02:42:59.162Z,6.25
2023-04-28T02:45:30.467Z,6.10
2023-04-28T02:48:01.440Z,6.40
2023-04-28T02:50:31.237Z,5.30
2023-04-28T02:53:08.425Z,5.68
2023-04-28T02:55:42.695Z,5.88
2023-04-28T02:58:14.575Z,5.32
2023-04-28T03:00:49.007Z,6.78
2023-04-28T03:03:19.448Z,6.35
2023-04-28T03:06:05.325Z,7.32
2023-04-28T03:08:35.529Z,6.65
2023-04-28T03:13:45.265Z,7.47
2023-04-28T03:16:25.288Z,7.55
2023-04-28T03:18:58.102Z,7.90
2023-04-28T03:24:12.887Z,7.88
2023-04-28T03:27:09.506Z,8.52
2023-04-28T03:29:46.248Z,8.18
2023-04-28T03:32:20.797Z,7.45
2023-04-28T03:34:54.204Z,8.90
2023-04-28T03:37:30.021Z,8.57
2023-04-28T03:40:00.896Z,9.30
2023-04-28T03:42:32.644Z,8.93
2023-04-28T03:45:11.748Z,9.05
2023-04-28T03:47:50.333Z,9.32
2023-04-28T03:50:29.355Z,8.93
2023-04-28T03:53:03.327Z,8.43
2023-04-28T03:55:34.502Z,9.15
2023-04-28T03:58:11.886Z,10.10
2023-04-28T04:00:52.466Z,9.50
2023-04-28T04:06:01.674Z,8.38
2023-04-28T04:08:32.430Z,7.47
2023-04-28T04:11:08.609Z,8.93
2023-04-28T04:13:38.506Z,8.38
2023-04-28T04:16:11.018Z,7.88
2023-04-28T04:18:45.213Z,7.70
2023-04-28T04:21:13.552Z,7.22
2023-04-28T04:23:43.874Z,7.63
2023-04-28T04:26:17.263Z,7.57
2023-04-28T04:28:59.869Z,7.47
2023-04-28T04:31:30.226Z,6.43
2023-04-28T04:33:59.627Z,7.38
2023-04-28T04:36:36.414Z,9.38
2023-04-28T04:39:10.117Z,9.15
2023-04-28T04:41:39.589Z,8.38
2023-04-28T04:44:06.830Z,7.20
2023-04-28T04:49:23.859Z,7.28
2023-04-28T04:51:54.186Z,7.07
2023-04-28T04:54:25.179Z,7.32
2023-04-28T04:56:52.589Z,6.05
2023-04-28T04:59:35.533Z,7.57
2023-04-28T05:02:13.344Z,7.43
2023-04-28T05:04:46.094Z,8.07
2023-04-28T05:07:22.692Z,7.35
2023-04-28T05:09:58.315Z,6.95
2023-04-28T05:12:28.247Z,6.50
2023-04-28T05:14:57.609Z,7.47
2023-04-28T05:17:36.052Z,7.30
2023-04-28T05:20:03.370Z,7.07
2023-04-28T05:22:38.571Z,7.15
2023-04-28T05:25:14.776Z,7.15
2023-04-28T05:27:42.871Z,7.78
2023-04-28T05:30:18.801Z,6.38
2023-04-28T05:32:51.557Z,7.00
2023-04-28T05:35:21.412Z,7.50
2023-04-28T05:37:59.022Z,7.93
2023-04-28T05:40:32.482Z,7.35
2023-04-28T05:43:03.539Z,7.22
2023-04-28T05:45:46.477Z,8.43
2023-04-28T05:48:22.798Z,7.82
2023-04-28T05:50:55.504Z,8.10
2023-04-28T05:53:22.776Z,8.43
2023-04-28T05:55:50.095Z,8.25
2023-04-28T05:58:18.415Z,8.75
2023-04-28T06:00:51.329Z,8.40
2023-04-28T06:03:22.249Z,8.65
2023-04-28T06:05:58.931Z,8.25
2023-04-28T06:08:28.795Z,8.52
2023-04-28T06:11:09.248Z,8.38
2023-04-28T06:13:36.502Z,8.88
2023-04-28T06:16:27.675Z,7.70
2023-04-28T06:18:56.385Z,7.28
2023-04-28T06:21:45.437Z,8.52
2023-04-28T06:24:15.195Z,7.28
2023-04-28T06:26:44.597Z,7.90
2023-04-28T06:29:14.290Z,7.63
2023-04-28T06:31:45.440Z,7.93
2023-04-28T06:34:20.181Z,6.97
2023-04-28T06:37:00.548Z,7.38
2023-04-28T06:39:30.001Z,7.70
2023-04-28T06:42:02.289Z,7.63
2023-04-28T06:44:31.935Z,7.10
2023-04-28T06:47:20.827Z,7.57
2023-04-28T06:52:39.957Z,7.63
2023-04-28T06:55:09.380Z,6.53
2023-04-28T06:57:39.821Z,6.57
2023-04-28T07:00:16.953Z,6.13
2023-04-28T07:02:48.969Z,7.18
2023-04-28T07:05:20.284Z,5.78
2023-04-28T07:07:50.094Z,7.47
2023-04-28T07:10:17.658Z,6.90
2023-04-28T07:12:48.572Z,6.65
2023-04-28T07:15:17.976Z,6.63
2023-04-28T07:17:54.357Z,7.47
2023-04-28T07:20:39.776Z,6.47
2023-04-28T07:23:28.020Z,5.13
2023-04-28T07:26:12.675Z,6.13
2023-04-28T07:31:26.189Z,6.88
2023-04-28T07:36:43.696Z,6.32
2023-04-28T07:39:11.119Z,6.72
2023-04-28T07:41:46.603Z,5.47
2023-04-28T07:44:18.287Z,6.88
2023-04-28T07:46:58.317Z,5.60
2023-04-28T07:49:35.645Z,5.35
2023-04-28T07:52:09.492Z,5.82
2023-04-28T07:54:41.169Z,5.30
2023-04-28T07:57:20.575Z,5.90
2023-04-28T07:59:51.185Z,5.93
2023-04-28T08:02:21.860Z,5.45
2023-04-28T08:04:52.231Z,5.38
2023-04-28T08:09:53.806Z,5.57
2023-04-28T08:12:22.074Z,5.88
2023-04-28T08:14:51.977Z,6.43
2023-04-28T08:17:23.380Z,5.88
2023-04-28T08:19:50.528Z,5.30
2023-04-28T08:22:17.898Z,5.45
2023-04-28T08:24:45.202Z,5.57
2023-04-28T08:27:15.624Z,6.38
2023-04-28T08:32:11.047Z,7.07
2023-04-28T08:34:41.692Z,6.95
2023-04-28T08:37:09.037Z,5.55
2023-04-28T08:39:38.981Z,5.68
2023-04-28T08:42:11.955Z,5.78
2023-04-28T08:44:39.695Z,6.03
2023-04-28T08:47:16.590Z,4.82
2023-04-28T08:49:53.852Z,5.57
2023-04-28T08:52:21.859Z,5.72
2023-04-28T08:54:50.692Z,6.15
2023-04-28T08:57:18.549Z,6.68
2023-04-28T08:59:48.624Z,4.72
2023-04-28T09:02:16.133Z,5.10
2023-04-28T09:04:46.806Z,6.05
2023-04-28T09:07:17.008Z,5.78
2023-04-28T09:09:46.703Z,6.18
2023-04-28T09:12:22.066Z,5.75
2023-04-28T09:14:58.640Z,6.22
2023-04-28T09:17:28.574Z,6.25
2023-04-28T09:19:57.127Z,5.30
2023-04-28T09:22:29.572Z,4.78
2023-04-28T09:24:57.871Z,5.28
2023-04-28T09:27:29.318Z,5.15
2023-04-28T09:29:59.158Z,5.70
2023-04-28T09:32:34.395Z,4.95
2023-04-28T09:35:10.211Z,5.20
2023-04-28T09:37:37.788Z,4.95
2023-04-28T09:40:12.585Z,6.07
2023-04-28T09:42:42.647Z,5.18
2023-04-28T09:45:15.924Z,5.00
2023-04-28T09:47:46.849Z,4.93
2023-04-28T09:50:16.967Z,5.20
2023-04-28T09:52:48.988Z,4.85
2023-04-28T09:55:19.159Z,5.30
2023-04-28T09:57:51.198Z,5.22
2023-04-28T10:00:20.342Z,4.80
2023-04-28T10:02:55.961Z,5.45
2023-04-28T10:05:25.093Z,5.70
2023-04-28T10:07:56.624Z,4.57
2023-04-28T10:10:25.173Z,5.32
2023-04-28T10:12:58.105Z,5.53
2023-04-28T10:15:25.620Z,5.03
2023-04-28T10:17:56.806Z,5.00
2023-04-28T10:20:33.532Z,4.97
2023-04-28T10:23:22.460Z,4.75
2023-04-28T10:25:53.436Z,4.75
2023-04-28T10:28:30.868Z,4.90
2023-04-28T10:31:12.439Z,5.05
2023-04-28T10:33:41.368Z,5.13
2023-04-28T10:36:16.189Z,6.13
2023-04-28T10:39:09.826Z,5.85
2023-04-28T10:41:38.333Z,6.38
2023-04-28T10:44:28.516Z,6.85
2023-04-28T10:47:03.436Z,5.78
2023-04-28T10:49:51.175Z,6.28
2023-04-28T10:52:37.868Z,5.28
2023-04-28T10:55:29.735Z,6.05
2023-04-28T10:58:23.487Z,6.32
2023-04-28T11:00:58.043Z,5.25
2023-04-28T11:04:00.856Z,5.28
2023-04-28T11:06:50.102Z,5.75
2023-04-28T11:09:23.389Z,5.88
2023-04-28T11:12:07.992Z,6.38
2023-04-28T11:17:31.498Z,7.10
2023-04-28T11:22:40.996Z,7.28
2023-04-28T11:25:08.524Z,6.68
2023-04-28T11:27:36.300Z,6.90
2023-04-28T11:30:11.917Z,6.45
2023-04-28T11:32:40.219Z,6.40
2023-04-28T11:35:13.450Z,5.20
2023-04-28T11:37:40.526Z,3.50
2023-04-28T11:40:11.507Z,4.78
2023-04-28T11:42:47.286Z,2.83
2023-04-28T11:45:14.369Z,3.08
2023-04-28T11:47:41.539Z,2.90
2023-04-28T11:50:08.777Z,3.20
2023-04-28T11:52:35.994Z,3.22
2023-04-28T11:55:03.083Z,2.60
2023-04-28T11:57:30.100Z,2.83
2023-04-28T12:00:22.054Z,3.20
2023-04-28T12:02:49.405Z,3.35
2023-04-28T12:05:16.706Z,3.17
2023-04-28T12:07:44.458Z,2.70
2023-04-28T12:10:11.844Z,2.67
2023-04-28T12:12:49.855Z,2.50
2023-04-28T12:15:20.444Z,3.28
2023-04-28T12:17:48.286Z,1.90
2023-04-28T12:20:35.221Z,1.90
2023-04-28T12:23:02.848Z,1.85
2023-04-28T12:25:30.406Z,1.52
2023-04-28T12:28:02.481Z,1.88
2023-04-28T12:30:30.429Z,1.60
2023-04-28T12:32:57.642Z,1.70
2023-04-28T12:35:28.811Z,1.63
2023-04-28T12:37:56.956Z,1.63
2023-04-28T12:40:24.483Z,2.00
2023-04-28T12:42:51.736Z,1.50
2023-04-28T12:45:18.943Z,2.10
2023-04-28T12:47:46.141Z,1.55
2023-04-28T12:50:13.344Z,1.55
2023-04-28T12:52:40.493Z,1.67
2023-04-28T12:55:08.151Z,2.00
2023-04-28T12:57:39.010Z,1.45
2023-04-28T13:00:07.084Z,1.23
2023-04-28T13:02:34.436Z,1.40
2023-04-28T13:05:01.993Z,1.30
2023-04-28T13:07:30.152Z,1.15
2023-04-28T13:09:57.277Z,1.05
2023-04-28T13:12:24.527Z,1.40
2023-04-28T13:14:51.741Z,0.90
2023-04-28T13:17:18.841Z,1.02
2023-04-28T13:19:46.368Z,0.80
2023-04-28T13:22:13.635Z,1.10
2023-04-28T13:24:40.729Z,1.00
2023-04-28T13:27:09.750Z,0.80
2023-04-28T13:29:37.432Z,0.80
2023-04-28T13:32:05.547Z,1.05
2023-04-28T13:34:32.984Z,1.00
2023-04-28T13:37:00.036Z,1.42
2023-04-28T13:39:27.143Z,1.20
2023-04-28T13:41:54.407Z,1.83
2023-04-28T13:44:21.570Z,2.28
2023-04-28T13:46:51.994Z,2.30
2023-04-28T13:49:20.030Z,2.00
2023-04-28T13:51:47.317Z,1.60
2023-04-28T13:54:14.533Z,1.55
2023-04-28T13:56:41.638Z,1.20
2023-04-28T13:59:08.705Z,0.90
2023-04-28T14:01:35.864Z,0.90
2023-04-28T14:04:03.234Z,0.80
2023-04-28T14:06:31.937Z,0.73
2023-04-28T14:09:01.114Z,1.30
2023-04-28T14:11:28.105Z,1.50
2023-04-28T14:13:55.479Z,2.03
2023-04-28T14:16:22.575Z,1.80
2023-04-28T14:18:49.781Z,1.88
2023-04-28T14:21:16.848Z,1.70
2023-04-28T14:23:43.945Z,1.83
2023-04-28T14:26:11.013Z,1.40
2023-04-28T14:28:38.276Z,1.48
2023-04-28T14:31:09.221Z,1.80
2023-04-28T14:33:36.769Z,1.98
2023-04-28T14:36:04.075Z,1.50
2023-04-28T14:38:31.322Z,1.35
2023-04-28T14:40:58.496Z,1.70
2023-04-28T14:43:25.649Z,1.70
2023-04-28T14:45:53.376Z,1.80
2023-04-28T14:48:20.749Z,1.88
2023-04-28T14:50:47.944Z,2.00
2023-04-28T14:53:15.146Z,2.30
2023-04-28T14:55:42.344Z,2.42
2023-04-28T14:58:09.394Z,2.33
2023-04-28T15:00:36.508Z,1.95
2023-04-28T15:03:04.170Z,2.47
2023-04-28T15:05:31.367Z,2.30
2023-04-28T15:07:58.812Z,1.50
2023-04-28T15:10:26.786Z,1.38
2023-04-28T15:12:53.847Z,0.90
2023-04-28T15:15:21.126Z,1.35
2023-04-28T15:17:48.218Z,0.95
2023-04-28T15:20:15.329Z,0.85
2023-04-28T15:22:44.437Z,1.00
2023-04-28T15:25:11.658Z,0.83
2023-04-28T15:27:38.810Z,0.85
2023-04-28T15:30:06.068Z,0.80
2023-04-28T15:32:33.158Z,1.00
2023-04-28T15:35:00.354Z,0.90
2023-04-28T15:37:47.664Z,0.70
2023-04-28T15:40:16.564Z,0.60
2023-04-28T15:42:49.359Z,0.60
2023-04-28T15:45:22.666Z,0.77
2023-04-28T15:47:50.694Z,1.15
2023-04-28T15:50:21.947Z,0.70
2023-04-28T15:52:50.137Z,0.70
2023-04-28T15:55:18.643Z,0.70
2023-04-28T15:57:46.737Z,0.55
2023-04-28T16:00:17.039Z,0.60
2023-04-28T16:02:46.835Z,0.60
2023-04-28T16:07:45.053Z,0.68
2023-04-28T16:10:13.259Z,0.60
2023-04-28T16:12:40.775Z,0.50
2023-04-28T16:15:08.865Z,0.60
2023-04-28T16:17:37.978Z,0.32
2023-04-28T16:20:09.642Z,0.57
2023-04-28T16:22:37.689Z,0.57
2023-04-28T16:25:09.160Z,0.47
2023-04-28T16:27:36.758Z,0.40
2023-04-28T16:30:07.629Z,0.50
2023-04-28T16:32:37.776Z,0.40
2023-04-28T16:35:15.153Z,0.75
2023-04-28T16:37:44.571Z,1.10
2023-04-28T16:40:12.219Z,1.15
2023-04-28T16:42:39.774Z,1.33
2023-04-28T16:45:08.470Z,1.40
2023-04-28T16:47:38.091Z,1.60
2023-04-28T16:50:11.639Z,1.55
2023-04-28T16:52:41.770Z,1.67
2023-04-28T16:55:09.439Z,1.85
2023-04-28T16:57:36.698Z,2.20
2023-04-28T17:00:09.572Z,1.77
2023-04-28T17:02:36.594Z,1.83
2023-04-28T17:05:03.807Z,1.92
2023-04-28T17:07:31.265Z,1.90
2023-04-28T17:09:59.029Z,1.77
2023-04-28T17:12:32.043Z,1.77
2023-04-28T17:15:01.797Z,1.80
2023-04-28T17:17:29.247Z,1.50
2023-04-28T17:19:57.726Z,1.90
2023-04-28T17:22:24.865Z,1.25
2023-04-28T17:24:52.112Z,1.80
2023-04-28T17:27:19.336Z,1.80
2023-04-28T17:29:46.483Z,1.58
2023-04-28T17:32:13.757Z,1.60
2023-04-28T17:34:43.909Z,1.90
2023-04-28T17:39:56.290Z,1.88
2023-04-28T17:42:26.351Z,1.60
2023-04-28T17:44:53.560Z,1.10
2023-04-28T17:47:23.623Z,1.40
2023-04-28T17:49:51.833Z,1.40
2023-04-28T17:52:19.283Z,1.70
2023-04-28T17:54:47.040Z,1.45
2023-04-28T17:57:14.542Z,1.65
2023-04-28T17:59:46.930Z,1.70
2023-04-28T18:02:14.223Z,1.20
2023-04-28T18:04:41.602Z,1.15
2023-04-28T18:07:09.080Z,1.40
2023-04-28T18:09:36.389Z,1.30
2023-04-28T18:12:04.647Z,1.08
2023-04-28T18:14:32.139Z,1.10
2023-04-28T18:17:02.560Z,1.08
2023-04-28T18:21:58.056Z,1.42
2023-04-28T18:24:28.033Z,1.70
2023-04-28T18:26:55.289Z,1.25
2023-04-28T18:29:25.039Z,1.45
2023-04-28T18:31:52.393Z,1.20
2023-04-28T18:34:19.878Z,1.45
2023-04-28T18:39:17.347Z,1.10
2023-04-28T18:41:44.811Z,0.93
2023-04-28T18:44:12.595Z,1.08
2023-04-28T18:46:43.344Z,1.20
2023-04-28T18:49:10.510Z,1.02
2023-04-28T18:51:44.260Z,0.95
2023-04-28T18:54:19.188Z,1.27
2023-04-28T18:56:46.447Z,1.10
2023-04-28T18:59:13.770Z,0.90
2023-04-28T19:01:41.006Z,1.05
2023-04-28T19:04:11.338Z,1.10
2023-04-28T19:06:40.847Z,1.20
2023-04-28T19:09:10.623Z,0.60
2023-04-28T19:11:37.938Z,0.60
2023-04-28T19:14:08.611Z,0.60
2023-04-28T19:16:38.908Z,0.95
2023-04-28T19:19:09.687Z,1.02
2023-04-28T19:21:44.653Z,0.93
2023-04-28T19:24:12.694Z,0.90
2023-04-28T19:26:39.948Z,0.80
2023-04-28T19:29:07.231Z,0.82
2023-04-28T19:31:34.828Z,0.90
2023-04-28T19:34:04.456Z,0.90
2023-04-28T19:36:32.976Z,0.82
2023-04-28T19:39:00.154Z,0.82
2023-04-28T19:41:30.878Z,1.00
2023-04-28T19:43:58.352Z,0.90
2023-04-28T19:46:25.603Z,0.90
2023-04-28T19:48:58.251Z,1.10
2023-04-28T19:51:25.503Z,0.90
2023-04-28T19:53:53.582Z,1.10
2023-04-28T19:56:23.007Z,0.85
2023-04-28T19:58:50.244Z,0.93
2023-04-28T20:01:17.555Z,1.23
2023-04-28T20:03:45.080Z,0.90
2023-04-28T20:06:18.075Z,1.23
2023-04-28T20:08:45.766Z,0.90
2023-04-28T20:11:13.453Z,1.02
2023-04-28T20:13:40.733Z,0.98
2023-04-28T20:16:08.092Z,1.30
2023-04-28T20:18:38.373Z,1.73
2023-04-28T20:21:05.519Z,1.20
2023-04-28T20:23:32.984Z,1.05
2023-04-28T20:26:00.276Z,1.40
2023-04-28T20:28:30.045Z,1.20
2023-04-28T20:30:57.430Z,1.17
2023-04-28T20:33:27.716Z,1.42
2023-04-28T20:35:54.875Z,1.35
2023-04-28T20:38:22.348Z,1.33
2023-04-28T20:40:49.674Z,1.30
2023-04-28T20:43:17.135Z,1.23
2023-04-28T20:45:46.658Z,1.50
2023-04-28T20:48:13.942Z,1.20
2023-04-28T20:50:45.247Z,1.88
2023-04-28T20:53:15.176Z,1.25
2023-04-28T20:55:42.506Z,1.10
2023-04-28T20:58:09.696Z,1.40
2023-04-28T21:00:40.556Z,1.50
2023-04-28T21:03:09.720Z,1.20
2023-04-28T21:05:39.968Z,1.40
2023-04-28T21:08:07.383Z,1.50
2023-04-28T21:10:36.784Z,1.40
2023-04-28T21:13:04.514Z,1.95
2023-04-28T21:15:36.939Z,1.85
2023-04-28T21:18:04.494Z,1.80
2023-04-28T21:20:31.720Z,1.70
2023-04-28T21:22:58.948Z,1.70
2023-04-28T21:25:26.238Z,1.73
2023-04-28T21:27:53.382Z,1.50
2023-04-28T21:30:22.053Z,1.58
2023-04-28T21:32:49.308Z,1.50
2023-04-28T21:35:16.516Z,1.15
2023-04-28T21:37:46.773Z,1.50
2023-04-28T21:40:14.049Z,1.58
2023-04-28T21:42:41.195Z,1.83
2023-04-28T21:45:11.707Z,1.38
2023-04-28T21:50:08.987Z,1.43
2023-04-28T21:52:36.582Z,1.20
2023-04-28T21:55:03.791Z,1.50
2023-04-28T21:57:33.786Z,1.08
2023-04-28T22:00:02.912Z,1.13
2023-04-28T22:02:30.282Z,1.60
2023-04-28T22:04:57.538Z,1.67
2023-04-28T22:07:25.675Z,1.55
2023-04-28T22:09:53.682Z,2.13
2023-04-28T22:12:20.803Z,1.45
2023-04-28T22:14:47.942Z,1.88
2023-04-28T22:17:15.329Z,1.80
2023-04-28T22:19:42.683Z,1.52
2023-04-28T22:22:09.963Z,2.17
2023-04-28T22:24:37.123Z,2.13
2023-04-28T22:27:04.308Z,2.28
2023-04-28T22:29:31.456Z,2.00
2023-04-28T22:32:00.783Z,2.10
2023-04-28T22:34:27.889Z,2.75
2023-04-28T22:36:57.204Z,2.65
2023-04-28T22:39:27.143Z,2.78
2023-04-28T22:41:54.349Z,3.30
2023-04-28T22:44:24.176Z,3.50
2023-04-28T22:46:51.429Z,4.32
2023-04-28T22:49:24.405Z,3.92
2023-04-28T22:51:51.639Z,3.72
2023-04-28T22:54:19.022Z,3.63
2023-04-28T22:56:46.252Z,4.93
2023-04-28T22:59:13.489Z,4.10
2023-04-28T23:01:40.678Z,4.13
2023-04-28T23:04:10.347Z,4.28
2023-04-28T23:06:40.173Z,3.72
2023-04-28T23:09:07.317Z,4.32
2023-04-28T23:11:34.516Z,3.60
2023-04-28T23:14:03.999Z,4.38
2023-04-28T23:16:31.169Z,4.47
2023-04-28T23:18:58.630Z,4.93
2023-04-28T23:21:28.945Z,4.82
2023-04-28T23:23:56.168Z,6.13
2023-04-28T23:26:24.852Z,5.65
2023-04-28T23:28:51.984Z,5.85
2023-04-28T23:31:19.175Z,5.82
2023-04-28T23:33:46.280Z,6.68
2023-04-28T23:36:13.849Z,6.15
2023-04-28T23:38:40.983Z,7.35
2023-04-28T23:41:13.881Z,8.77
2023-04-28T23:43:43.842Z,7.63
2023-04-28T23:46:11.101Z,7.57
2023-04-28T23:48:38.706Z,9.07
2023-04-28T23:51:05.947Z,8.95
2023-04-28T23:53:33.137Z,8.02
2023-04-28T23:56:00.464Z,7.55
2023-04-28T23:58:27.728Z,7.75
